Terminal Aerodrome Forecast
Issued by NWS

Home | Current Version | Previous Version | Text Only | Print | Product List | Glossary On
Versions: 1 2 3 4 5 6 7 8 9 10 11 12 13
559
FTUS46 KPDT 291120
TAFALW
TAF
KALW 291120Z 2912/3012 18009KT P6SM -RA OVC040
     FM291700 19012KT 5SM -RA BR OVC035
     FM300300 19010KT P6SM -SHRA OVC040=

USA.gov is the U.S. government's official web portal to all federal, state and local government web resources and services.